Time;durP1;ratioP1;P1;durP2;ratioP2;P2;SDS_P1;SDS_P2;PMS_P1;PMS_P2;Temp;Humidity;BMP_temperature;BMP_pressure;BME280_temperature;BME280_humidity;BME280_pressure;Samples;Min_cycle;Max_cycle;Signal;HPM_P1;HPM_P2
2022/12/07 00:01:42;;;;;;;0.82;0.55;;;2.30;99.90;;;;;;5099445;28;20054;-62
2022/12/07 00:04:12;;;;;;;1.55;0.93;;;2.30;99.90;;;;;;5097939;28;20044;-63
2022/12/07 00:06:45;;;;;;;4.10;1.60;;;2.30;99.90;;;;;;5079862;28;20044;-68
2022/12/07 00:09:15;;;;;;;1.58;0.98;;;2.30;99.90;;;;;;5101881;28;20085;-63
2022/12/07 00:11:42;;;;;;;3.67;1.15;;;2.30;99.90;;;;;;5102433;28;20047;-62
2022/12/07 00:14:14;;;;;;;2.35;0.88;;;2.20;99.90;;;;;;5099972;28;20066;-62
2022/12/07 00:16:42;;;;;;;6.15;1.60;;;2.20;99.90;;;;;;5081874;28;20397;-64
2022/12/07 00:19:12;;;;;;;3.75;0.77;;;2.20;99.90;;;;;;5100036;27;20461;-68
2022/12/07 00:21:39;;;;;;;1.73;0.90;;;2.20;99.90;;;;;;5101048;28;20051;-62
2022/12/07 00:24:06;;;;;;;1.30;0.60;;;2.20;99.90;;;;;;5099996;28;20058;-63
2022/12/07 00:26:36;;;;;;;1.10;0.60;;;2.20;99.90;;;;;;5098824;28;20089;-66
2022/12/07 00:29:07;;;;;;;2.53;0.90;;;2.20;99.90;;;;;;5077354;28;20140;-64
2022/12/07 00:31:38;;;;;;;1.58;0.98;;;2.20;99.90;;;;;;5097063;28;20047;-65
2022/12/07 00:34:07;;;;;;;3.65;1.17;;;2.20;99.90;;;;;;5098491;28;20047;-63
2022/12/07 00:36:34;;;;;;;1.58;0.77;;;2.20;99.90;;;;;;5093064;28;20074;-65
2022/12/07 00:39:02;;;;;;;5.07;2.40;;;2.10;99.90;;;;;;5101451;28;20109;-63
2022/12/07 00:41:30;;;;;;;2.50;0.77;;;2.10;99.90;;;;;;5090240;28;20131;-64
2022/12/07 00:43:57;;;;;;;1.70;1.17;;;2.10;99.90;;;;;;5101664;28;20043;-65
2022/12/07 00:46:25;;;;;;;2.25;0.90;;;2.00;99.90;;;;;;5099159;28;20120;-67
2022/12/07 00:48:53;;;;;;;0.80;0.50;;;2.00;99.90;;;;;;5094019;28;20142;-63
2022/12/07 00:51:22;;;;;;;2.58;1.13;;;2.00;99.90;;;;;;5097406;28;20051;-68
2022/12/07 00:53:50;;;;;;;4.45;0.90;;;2.00;99.90;;;;;;5096192;28;20066;-67
2022/12/07 00:56:25;;;;;;;2.15;1.02;;;2.00;99.90;;;;;;5095368;28;20039;-63
2022/12/07 00:58:57;;;;;;;3.13;1.13;;;2.00;99.90;;;;;;5095699;28;20051;-65
2022/12/07 01:01:26;;;;;;;2.33;0.80;;;2.00;99.90;;;;;;5083300;28;20051;-63
2022/12/07 01:03:54;;;;;;;2.13;1.00;;;2.00;99.90;;;;;;5090475;28;20060;-63
2022/12/07 01:06:25;;;;;;;3.00;1.00;;;2.00;99.90;;;;;;5095117;28;20040;-63
2022/12/07 01:08:52;;;;;;;3.80;1.67;;;2.00;99.90;;;;;;5089802;28;20050;-64
2022/12/07 01:11:26;;;;;;;1.13;0.90;;;2.00;99.90;;;;;;5095086;28;20113;-63
2022/12/07 01:13:55;;;;;;;1.58;0.73;;;2.00;99.90;;;;;;5101107;28;20382;-65
2022/12/07 01:16:24;;;;;;;2.05;1.00;;;2.00;99.90;;;;;;5093833;28;20044;-63
2022/12/07 01:18:53;;;;;;;2.17;1.17;;;2.00;99.90;;;;;;5097657;28;20048;-64
2022/12/07 01:21:23;;;;;;;1.55;1.30;;;1.90;99.90;;;;;;5093883;28;20440;-63
2022/12/07 01:23:51;;;;;;;2.72;1.15;;;1.90;99.90;;;;;;5099476;28;20062;-66
2022/12/07 01:26:21;;;;;;;1.40;1.30;;;1.90;99.90;;;;;;5097830;28;20050;-63
2022/12/07 01:28:48;;;;;;;3.25;1.45;;;1.90;99.90;;;;;;5104600;28;20559;-65
2022/12/07 01:31:18;;;;;;;2.97;1.50;;;1.90;99.90;;;;;;5106145;28;20130;-63
2022/12/07 01:33:47;;;;;;;3.20;1.10;;;1.90;99.90;;;;;;5105152;28;20374;-63
2022/12/07 01:36:20;;;;;;;2.22;1.42;;;1.90;99.90;;;;;;5100334;28;20052;-63
2022/12/07 01:38:51;;;;;;;1.85;1.25;;;1.90;99.90;;;;;;5103847;28;20480;-62
2022/12/07 01:41:20;;;;;;;1.50;1.05;;;1.90;99.90;;;;;;5104185;28;20516;-67
2022/12/07 01:44:29;;;;;;;4.00;1.35;;;1.90;99.90;;;;;;5107630;28;20038;-64
2022/12/07 01:47:01;;;;;;;1.17;0.85;;;1.90;99.90;;;;;;5020218;28;20055;-65
2022/12/07 01:49:30;;;;;;;3.80;1.25;;;1.90;99.90;;;;;;5020403;28;20137;-63
2022/12/07 01:52:30;;;;;;;0.87;0.63;;;1.90;99.90;;;;;;5060786;28;20040;-63
2022/12/07 01:55:02;;;;;;;3.60;0.82;;;2.00;99.90;;;;;;5101319;28;20071;-64
2022/12/07 01:57:30;;;;;;;2.25;0.70;;;2.20;99.90;;;;;;5101342;28;20582;-64
2022/12/07 01:59:58;;;;;;;0.93;0.70;;;2.30;99.90;;;;;;5103933;28;20052;-66
2022/12/07 02:03:01;;;;;;;2.90;0.85;;;2.40;99.90;;;;;;5100725;28;20120;-63
2022/12/07 02:05:28;;;;;;;;;;;2.40;99.90;;;;;;5092907;27;20045;-68
2022/12/07 02:07:57;;;;;;;2.28;1.13;;;2.40;99.90;;;;;;5099748;28;20018;-62
2022/12/07 02:10:28;;;;;;;2.28;1.38;;;2.40;99.90;;;;;;5079835;28;20043;-63
2022/12/07 02:13:20;;;;;;;2.90;0.77;;;2.30;99.90;;;;;;5077743;28;20135;-63
2022/12/07 02:16:19;;;;;;;4.38;1.85;;;2.30;99.90;;;;;;5100866;28;20512;-63
2022/12/07 02:19:07;;;;;;;0.70;0.63;;;2.30;99.90;;;;;;5101220;28;20073;-63
2022/12/07 02:21:38;;;;;;;1.17;0.75;;;2.30;99.90;;;;;;5102817;28;20040;-63
2022/12/07 02:24:42;;;;;;;3.08;0.75;;;2.30;99.90;;;;;;5105607;28;20078;-63
2022/12/07 02:27:33;;;;;;;1.75;1.00;;;2.30;99.90;;;;;;5100140;28;20044;-60
2022/12/07 02:30:07;;;;;;;1.88;1.00;;;2.30;99.90;;;;;;5099408;28;20054;-61
2022/12/07 02:32:57;;;;;;;1.83;0.95;;;2.30;99.90;;;;;;5100467;28;20124;-61
2022/12/07 02:35:32;;;;;;;2.38;1.35;;;2.30;99.90;;;;;;5104301;28;20048;-60
2022/12/07 02:38:28;;;;;;;2.53;0.90;;;2.30;99.90;;;;;;5099407;28;20051;-64
2022/12/07 02:41:04;;;;;;;3.78;1.08;;;2.20;99.90;;;;;;5103793;27;20043;-62
2022/12/07 02:43:37;;;;;;;2.05;0.93;;;2.20;99.90;;;;;;5104445;27;20047;-64
2022/12/07 02:46:09;;;;;;;1.38;0.98;;;2.10;99.90;;;;;;5099330;28;20048;-61
2022/12/07 02:48:38;;;;;;;3.13;1.80;;;2.20;99.90;;;;;;5095766;28;20135;-61
2022/12/07 02:51:05;;;;;;;3.03;1.63;;;2.30;99.90;;;;;;5102421;28;20689;-60
2022/12/07 02:53:36;;;;;;;2.33;0.73;;;2.30;99.90;;;;;;5102362;28;20048;-60
2022/12/07 02:56:19;;;;;;;1.45;1.20;;;2.30;99.90;;;;;;5099168;28;20051;-60
2022/12/07 02:58:55;;;;;;;4.93;1.33;;;2.30;99.90;;;;;;5104197;27;20123;-65
2022/12/07 03:01:41;;;;;;;1.35;0.75;;;2.20;99.90;;;;;;5103059;28;20087;-59
2022/12/07 03:04:24;;;;;;;1.10;0.80;;;2.20;99.90;;;;;;5096783;28;20057;-64
2022/12/07 03:06:59;;;;;;;3.13;0.73;;;2.10;99.90;;;;;;5096853;28;20051;-65
2022/12/07 03:09:37;;;;;;;7.38;1.70;;;2.10;99.90;;;;;;5096063;28;20043;-65
2022/12/07 03:12:13;;;;;;;3.20;1.83;;;2.00;99.90;;;;;;5098861;28;20143;-61
2022/12/07 03:14:49;;;;;;;2.25;1.40;;;2.00;99.90;;;;;;5099386;28;20055;-60
2022/12/07 03:17:20;;;;;;;2.55;1.20;;;1.90;99.90;;;;;;5098040;28;20039;-61
2022/12/07 03:19:48;;;;;;;1.85;1.13;;;1.90;99.90;;;;;;5104350;28;20481;-62
2022/12/07 03:22:17;;;;;;;1.90;0.82;;;1.80;99.90;;;;;;5100273;28;20048;-61
2022/12/07 03:24:54;;;;;;;0.95;0.68;;;1.80;99.90;;;;;;5097819;28;20047;-60
2022/12/07 03:27:32;;;;;;;2.72;1.00;;;1.80;99.90;;;;;;5101097;28;20035;-61
2022/12/07 03:30:06;;;;;;;4.28;1.42;;;1.80;99.90;;;;;;5100785;28;21838;-66
2022/12/07 03:32:52;;;;;;;4.70;1.23;;;1.80;99.90;;;;;;5096267;28;20098;-63
2022/12/07 03:35:38;;;;;;;2.55;1.25;;;1.70;99.90;;;;;;5097728;28;20158;-60
2022/12/07 03:38:10;;;;;;;2.40;0.60;;;1.70;99.90;;;;;;5115104;27;20393;-60
2022/12/07 03:41:03;;;;;;;2.63;0.80;;;1.90;99.90;;;;;;5100391;28;20149;-61
2022/12/07 03:43:30;;;;;;;1.73;0.73;;;2.10;99.90;;;;;;5101756;28;20055;-60
2022/12/07 03:46:25;;;;;;;1.40;0.98;;;2.20;99.90;;;;;;5099454;28;20070;-62
2022/12/07 03:49:07;;;;;;;2.50;0.73;;;2.20;99.90;;;;;;5099430;28;20420;-61
2022/12/07 03:51:49;;;;;;;2.83;0.80;;;2.30;99.90;;;;;;5101932;28;20069;-60
2022/12/07 03:54:36;;;;;;;1.75;0.52;;;2.30;99.90;;;;;;5102139;27;20398;-64
2022/12/07 03:57:05;;;;;;;0.95;0.65;;;2.30;99.90;;;;;;5098257;28;20069;-64
2022/12/07 03:59:33;;;;;;;4.88;0.80;;;2.30;99.90;;;;;;5100095;28;20039;-60
2022/12/07 04:02:06;;;;;;;1.67;0.80;;;2.30;99.90;;;;;;5100245;28;20032;-65
2022/12/07 04:04:34;;;;;;;3.17;0.75;;;2.30;99.90;;;;;;5099563;28;20055;-60
2022/12/07 04:07:01;;;;;;;1.15;0.80;;;2.20;99.90;;;;;;5099802;28;20047;-62
2022/12/07 04:09:28;;;;;;;4.43;0.88;;;2.20;99.90;;;;;;5103862;28;20063;-66
2022/12/07 04:11:55;;;;;;;7.45;1.10;;;2.20;99.90;;;;;;5094360;28;20096;-61
2022/12/07 04:14:22;;;;;;;1.73;0.80;;;2.10;99.90;;;;;;5096775;28;20040;-60
2022/12/07 04:16:52;;;;;;;4.05;1.83;;;2.10;99.90;;;;;;5098180;28;20381;-61
2022/12/07 04:19:23;;;;;;;2.20;1.25;;;2.10;99.90;;;;;;5095191;28;20074;-64
2022/12/07 04:21:50;;;;;;;;;;;2.10;99.90;;;;;;5098350;28;20477;-62
2022/12/07 04:24:17;;;;;;;0.60;0.60;;;2.10;99.90;;;;;;5094101;28;20002;-61
2022/12/07 04:26:45;;;;;;;1.85;0.85;;;2.00;99.90;;;;;;5097704;28;20174;-61
2022/12/07 04:29:12;;;;;;;3.55;1.25;;;2.00;99.90;;;;;;5100799;28;20150;-62
2022/12/07 04:31:39;;;;;;;1.40;1.17;;;2.00;99.90;;;;;;5099642;28;20036;-62
2022/12/07 04:34:07;;;;;;;3.42;0.98;;;1.90;99.90;;;;;;5100551;28;20056;-62
2022/12/07 04:36:34;;;;;;;2.72;0.98;;;1.90;99.90;;;;;;5098218;27;20201;-61
2022/12/07 04:39:02;;;;;;;3.25;1.30;;;1.90;99.90;;;;;;5100978;27;20054;-61
2022/12/07 04:41:28;;;;;;;1.65;0.85;;;1.80;99.90;;;;;;5100036;28;20074;-61
2022/12/07 04:44:04;;;;;;;1.35;0.77;;;1.80;99.90;;;;;;5097162;28;20176;-63
2022/12/07 04:46:31;;;;;;;2.13;0.80;;;1.80;99.90;;;;;;5094200;28;20093;-61
2022/12/07 04:48:59;;;;;;;3.83;0.98;;;1.70;99.90;;;;;;5093842;28;20396;-64
2022/12/07 04:51:28;;;;;;;2.97;0.95;;;1.70;99.90;;;;;;5099508;28;20048;-62
2022/12/07 04:53:56;;;;;;;4.47;0.82;;;1.70;99.90;;;;;;5093395;28;20070;-63
2022/12/07 04:56:24;;;;;;;1.77;0.73;;;1.70;99.90;;;;;;5097119;28;20067;-63
2022/12/07 04:58:52;;;;;;;4.22;0.95;;;1.80;99.90;;;;;;5098001;28;20089;-63
2022/12/07 05:01:21;;;;;;;4.15;1.10;;;1.70;99.90;;;;;;5104407;28;20050;-64
2022/12/07 05:03:49;;;;;;;6.72;0.95;;;1.70;99.90;;;;;;5102763;28;20091;-62
2022/12/07 05:06:16;;;;;;;1.75;0.82;;;1.70;99.90;;;;;;5098512;28;20499;-66
2022/12/07 05:08:43;;;;;;;1.00;0.63;;;1.70;99.90;;;;;;5098055;28;20047;-62
2022/12/07 05:11:37;;;;;;;3.75;1.02;;;1.70;99.90;;;;;;5100163;28;20133;-63
2022/12/07 05:14:01;;;;;;;;;;;1.70;99.90;;;;;;5097684;28;20042;-65
2022/12/07 05:16:28;;;;;;;2.90;0.75;;;1.60;99.90;;;;;;5103681;28;19924;-62
2022/12/07 05:18:55;;;;;;;4.82;0.82;;;1.60;99.90;;;;;;5095876;28;20051;-63
2022/12/07 05:21:22;;;;;;;3.88;1.35;;;1.60;99.90;;;;;;5100673;28;20066;-62
2022/12/07 05:23:49;;;;;;;1.98;0.88;;;1.60;99.90;;;;;;5100085;28;20058;-64
2022/12/07 05:26:16;;;;;;;0.93;0.65;;;1.60;99.90;;;;;;5097745;28;20048;-62
2022/12/07 05:28:43;;;;;;;3.17;1.08;;;1.60;99.90;;;;;;5096278;28;20383;-62
2022/12/07 05:31:10;;;;;;;2.63;1.15;;;1.60;99.90;;;;;;5094501;28;20056;-62
2022/12/07 05:33:37;;;;;;;2.10;0.82;;;1.60;99.90;;;;;;5099034;28;20804;-67
2022/12/07 05:36:07;;;;;;;5.40;1.95;;;1.60;99.90;;;;;;5103034;28;20051;-63
2022/12/07 05:38:34;;;;;;;4.05;1.33;;;1.60;99.90;;;;;;5097101;28;20059;-62
2022/12/07 05:41:06;;;;;;;9.38;1.70;;;1.60;99.90;;;;;;5095091;28;20077;-68
2022/12/07 05:43:33;;;;;;;3.53;0.93;;;1.60;99.90;;;;;;5103766;28;20099;-62
2022/12/07 05:46:00;;;;;;;5.25;1.55;;;1.60;99.90;;;;;;5102815;28;20039;-65
2022/12/07 05:48:27;;;;;;;1.80;0.95;;;1.60;99.90;;;;;;5101354;28;20051;-62
2022/12/07 05:50:54;;;;;;;3.20;0.80;;;1.60;99.90;;;;;;5096185;28;20075;-63
2022/12/07 05:53:20;;;;;;;7.18;0.98;;;1.60;99.90;;;;;;5099220;28;20061;-63
2022/12/07 05:55:49;;;;;;;1.23;0.90;;;1.60;99.90;;;;;;5099843;28;20071;-63
2022/12/07 06:01:01;;;;;;;1.10;0.63;;;1.40;99.90;;;;;;5100056;28;20044;-63
2022/12/07 06:03:28;;;;;;;1.88;0.90;;;1.40;99.90;;;;;;5100998;28;20040;-64
2022/12/07 06:05:55;;;;;;;0.95;0.60;;;1.40;99.90;;;;;;5099650;27;20499;-64
2022/12/07 06:08:22;;;;;;;1.77;0.60;;;1.30;99.90;;;;;;5097479;28;20139;-66
2022/12/07 06:12:33;;;;;;;0.65;0.30;;;1.30;99.90;;;;;;5096416;28;20153;-66
2022/12/07 06:13:38;;;;;;;0.50;0.40;;;1.30;99.90;;;;;;5095567;28;20039;-63
2022/12/07 06:16:12;;;;;;;1.60;0.85;;;1.30;99.90;;;;;;5099390;28;20127;-66
2022/12/07 06:18:39;;;;;;;1.75;0.70;;;1.30;99.90;;;;;;5095881;28;20062;-62
2022/12/07 06:21:06;;;;;;;1.55;0.65;;;1.30;99.90;;;;;;5097804;28;20048;-63
2022/12/07 06:23:33;;;;;;;0.65;0.22;;;1.30;99.90;;;;;;5095956;27;20885;-63
2022/12/07 06:26:00;;;;;;;2.50;0.52;;;1.30;99.90;;;;;;5100981;28;20066;-66
2022/12/07 06:28:27;;;;;;;1.40;0.80;;;1.30;99.90;;;;;;5095830;28;20058;-62
2022/12/07 06:31:01;;;;;;;2.67;0.68;;;1.20;99.90;;;;;;5095589;28;20048;-62
2022/12/07 06:33:29;;;;;;;1.33;0.98;;;1.20;99.90;;;;;;5098844;28;20358;-63
2022/12/07 06:35:55;;;;;;;5.88;0.77;;;1.20;99.90;;;;;;5095806;28;20177;-62
2022/12/07 06:38:22;;;;;;;1.75;0.98;;;1.30;99.90;;;;;;5101448;28;20791;-62
2022/12/07 06:40:49;;;;;;;1.10;0.63;;;1.30;99.90;;;;;;5103941;28;20062;-61
2022/12/07 06:43:16;;;;;;;0.63;0.57;;;1.20;99.90;;;;;;5102086;27;20054;-63
2022/12/07 06:45:43;;;;;;;1.05;0.50;;;1.20;99.90;;;;;;5098894;27;20051;-65
2022/12/07 06:48:10;;;;;;;1.77;0.90;;;1.20;99.90;;;;;;5102735;28;20059;-64
2022/12/07 06:50:37;;;;;;;4.43;0.93;;;1.20;99.90;;;;;;5096419;28;20046;-62
2022/12/07 06:53:04;;;;;;;1.55;1.10;;;1.20;99.90;;;;;;5101606;28;20055;-64
2022/12/07 06:55:31;;;;;;;1.77;0.80;;;1.20;99.90;;;;;;5101739;28;20058;-64
2022/12/07 06:57:58;;;;;;;3.22;0.50;;;1.20;99.90;;;;;;5100552;28;20036;-62
2022/12/07 07:00:25;;;;;;;1.52;0.70;;;1.20;99.90;;;;;;5102105;28;20428;-63
2022/12/07 07:02:51;;;;;;;5.72;1.25;;;1.20;99.90;;;;;;5104236;28;20055;-65
2022/12/07 07:05:21;;;;;;;3.83;0.88;;;1.20;99.90;;;;;;5100447;28;20047;-61
2022/12/07 07:07:51;;;;;;;1.83;0.70;;;1.20;99.90;;;;;;5100473;28;20398;-62
2022/12/07 07:10:38;;;;;;;2.00;0.55;;;1.30;99.90;;;;;;5084933;28;20046;-62
2022/12/07 07:13:05;;;;;;;1.15;0.47;;;1.30;99.90;;;;;;5107373;27;20170;-62
2022/12/07 07:15:33;;;;;;;0.60;0.30;;;1.30;99.90;;;;;;5100200;28;20675;-65
2022/12/07 07:18:00;;;;;;;3.95;0.60;;;1.20;99.90;;;;;;5100120;28;20036;-63
2022/12/07 07:20:33;;;;;;;0.80;0.50;;;1.30;99.90;;;;;;5096489;28;20044;-61
2022/12/07 07:23:01;;;;;;;0.50;0.30;;;1.20;99.90;;;;;;5095038;28;20074;-66
2022/12/07 07:25:28;;;;;;;0.93;0.52;;;1.20;99.90;;;;;;5098193;28;20244;-60
2022/12/07 07:27:55;;;;;;;1.63;0.35;;;1.20;99.90;;;;;;5098853;28;20039;-63
2022/12/07 07:30:22;;;;;;;1.00;0.30;;;1.30;99.90;;;;;;5097088;28;20059;-63
2022/12/07 07:32:48;;;;;;;1.27;0.57;;;1.30;99.90;;;;;;5098554;28;20047;-62
2022/12/07 07:35:15;;;;;;;1.85;0.77;;;1.30;99.90;;;;;;5101457;28;20047;-68
2022/12/07 07:37:42;;;;;;;1.63;0.80;;;1.30;99.90;;;;;;5099443;28;20043;-63
2022/12/07 07:40:10;;;;;;;3.05;0.35;;;1.30;99.90;;;;;;5099574;28;20040;-62
2022/12/07 07:42:36;;;;;;;1.35;0.50;;;1.30;99.90;;;;;;5097019;28;20050;-61
2022/12/07 07:45:04;;;;;;;1.52;0.47;;;1.30;99.90;;;;;;5098937;28;20288;-62
2022/12/07 07:47:31;;;;;;;3.90;0.50;;;1.30;99.90;;;;;;5100829;28;20474;-63
2022/12/07 07:49:58;;;;;;;2.78;0.30;;;1.30;99.90;;;;;;5117709;27;20341;-63
2022/12/07 07:52:25;;;;;;;4.65;0.30;;;1.30;99.90;;;;;;5100948;28;20043;-64
2022/12/07 07:54:52;;;;;;;0.60;0.45;;;1.30;99.90;;;;;;5090352;28;20044;-62
2022/12/07 07:57:19;;;;;;;1.35;0.40;;;1.40;99.90;;;;;;5098888;28;20058;-62
2022/12/07 07:59:45;;;;;;;3.28;1.27;;;1.40;99.90;;;;;;5097742;28;20166;-64
2022/12/07 08:02:15;;;;;;;1.85;0.40;;;1.40;99.90;;;;;;5102205;28;20424;-61
2022/12/07 08:04:42;;;;;;;5.32;0.77;;;1.40;99.90;;;;;;5094769;28;20484;-64
2022/12/07 08:07:10;;;;;;;1.70;0.32;;;1.40;99.90;;;;;;5099118;27;20144;-62
2022/12/07 08:09:37;;;;;;;2.97;1.58;;;1.40;99.90;;;;;;5097475;28;20051;-62
2022/12/07 08:12:05;;;;;;;2.78;0.20;;;1.50;99.90;;;;;;5101107;28;20366;-64
2022/12/07 08:14:31;;;;;;;2.72;0.60;;;1.50;99.90;;;;;;5098228;28;20069;-61
2022/12/07 08:16:58;;;;;;;1.95;0.40;;;1.50;99.90;;;;;;5102088;28;21777;-61
2022/12/07 08:19:26;;;;;;;1.20;0.28;;;1.50;99.90;;;;;;5100189;28;20523;-60
2022/12/07 08:21:52;;;;;;;5.68;1.00;;;1.50;99.90;;;;;;5096259;28;20055;-62
2022/12/07 08:24:19;;;;;;;1.75;1.08;;;1.50;99.90;;;;;;5096844;28;20039;-63
2022/12/07 08:26:46;;;;;;;1.88;0.55;;;1.50;99.90;;;;;;5101210;28;20039;-63
2022/12/07 08:29:13;;;;;;;6.55;0.60;;;1.60;99.90;;;;;;5097220;28;20048;-67
2022/12/07 08:31:40;;;;;;;3.20;1.05;;;1.60;99.90;;;;;;5097762;28;20053;-64
2022/12/07 08:34:07;;;;;;;1.92;1.65;;;1.60;99.90;;;;;;5096506;28;20070;-61
2022/12/07 08:36:33;;;;;;;3.90;0.60;;;1.60;99.90;;;;;;5101389;28;20384;-64
2022/12/07 08:39:00;;;;;;;3.40;0.55;;;1.70;99.90;;;;;;5091428;28;20042;-62
2022/12/07 08:41:47;;;;;;;3.08;0.60;;;1.70;99.90;;;;;;5102110;28;20132;-66
2022/12/07 08:44:14;;;;;;;4.95;0.75;;;1.60;99.90;;;;;;5100614;28;20071;-63
2022/12/07 08:46:47;;;;;;;2.70;0.73;;;1.60;99.90;;;;;;5101037;28;20080;-63
2022/12/07 08:49:14;;;;;;;3.78;0.95;;;1.60;99.90;;;;;;5096612;28;20392;-63
2022/12/07 08:51:42;;;;;;;2.15;0.85;;;1.70;99.90;;;;;;5096732;28;20432;-61
2022/12/07 08:54:13;;;;;;;5.30;2.47;;;1.60;99.90;;;;;;5098572;28;20052;-62
2022/12/07 08:56:41;;;;;;;3.63;1.55;;;1.60;99.90;;;;;;5093652;28;20052;-61
2022/12/07 08:59:08;;;;;;;3.33;0.77;;;1.60;99.90;;;;;;5099283;28;20062;-63
2022/12/07 09:01:35;;;;;;;4.20;0.73;;;1.70;99.90;;;;;;5097931;28;20050;-64
2022/12/07 09:04:02;;;;;;;1.70;1.02;;;1.70;99.90;;;;;;5092964;28;20086;-63
2022/12/07 09:06:29;;;;;;;0.75;0.75;;;1.70;99.90;;;;;;5094936;28;20067;-61
2022/12/07 09:09:00;;;;;;;1.02;0.40;;;1.60;99.90;;;;;;5097547;27;20071;-67
2022/12/07 09:11:27;;;;;;;1.80;0.70;;;1.60;99.90;;;;;;5103288;28;20398;-61
2022/12/07 09:13:55;;;;;;;4.68;2.20;;;1.60;99.90;;;;;;5096492;28;20055;-62
2022/12/07 09:16:22;;;;;;;2.10;0.30;;;1.60;99.90;;;;;;5099927;28;20039;-63
2022/12/07 09:18:49;;;;;;;2.25;0.40;;;1.60;99.90;;;;;;5093201;28;20489;-62
2022/12/07 09:21:16;;;;;;;1.05;0.20;;;1.50;99.90;;;;;;5101360;28;20163;-62
2022/12/07 09:23:43;;;;;;;1.35;0.35;;;1.50;99.90;;;;;;5100145;28;20032;-63
2022/12/07 09:26:10;;;;;;;2.20;0.30;;;1.40;99.90;;;;;;5098455;28;20109;-61
2022/12/07 09:28:38;;;;;;;1.35;0.40;;;1.40;99.90;;;;;;5095828;28;20061;-61
2022/12/07 09:31:05;;;;;;;2.95;1.17;;;1.40;99.90;;;;;;5100775;28;20052;-64
2022/12/07 09:33:58;;;;;;;0.93;0.52;;;1.40;99.90;;;;;;5099010;28;20047;-63
2022/12/07 09:36:26;;;;;;;2.25;0.52;;;1.50;99.90;;;;;;5096419;28;20044;-64
2022/12/07 09:38:53;;;;;;;0.95;0.55;;;1.50;99.90;;;;;;5092763;28;20083;-63
2022/12/07 09:41:22;;;;;;;1.95;0.82;;;1.50;99.90;;;;;;5100265;28;20592;-62
2022/12/07 09:43:50;;;;;;;2.58;0.70;;;1.50;99.90;;;;;;5098365;28;20071;-62
2022/12/07 09:46:20;;;;;;;0.60;0.40;;;1.50;99.90;;;;;;5105710;27;20069;-62
2022/12/07 09:48:49;;;;;;;3.80;0.63;;;1.50;99.90;;;;;;5099674;28;20058;-61
2022/12/07 09:51:17;;;;;;;4.32;1.02;;;1.40;99.90;;;;;;5104854;28;20096;-66
2022/12/07 09:53:54;;;;;;;1.63;0.90;;;1.40;99.90;;;;;;5098234;28;20062;-61
2022/12/07 09:56:23;;;;;;;1.98;0.60;;;1.40;99.90;;;;;;5101708;28;20074;-65
2022/12/07 09:59:01;;;;;;;1.67;0.60;;;1.40;99.90;;;;;;5098116;28;20071;-63
2022/12/07 10:01:33;;;;;;;1.15;0.63;;;1.30;99.90;;;;;;5102211;28;20057;-61
2022/12/07 10:04:23;;;;;;;1.90;0.65;;;1.30;99.90;;;;;;5102861;28;20420;-62
2022/12/07 10:06:51;;;;;;;6.47;0.68;;;1.30;99.90;;;;;;5096995;28;20409;-62
2022/12/07 10:09:21;;;;;;;3.42;1.42;;;1.30;99.90;;;;;;5104452;28;20078;-61
2022/12/07 10:12:02;;;;;;;;;;;1.30;99.90;;;;;;5102793;28;20044;-61
2022/12/07 10:14:31;;;;;;;2.78;0.65;;;1.30;99.90;;;;;;5098931;28;20403;-61
2022/12/07 10:17:30;;;;;;;4.65;0.77;;;1.30;99.90;;;;;;5098941;28;20124;-67
2022/12/07 10:20:21;;;;;;;2.35;0.88;;;1.40;99.90;;;;;;5101429;27;20071;-62
2022/12/07 10:22:57;;;;;;;1.38;1.05;;;1.40;99.90;;;;;;5096212;28;20440;-61
2022/12/07 10:25:28;;;;;;;5.35;1.05;;;1.40;99.90;;;;;;5098374;28;20051;-62
2022/12/07 10:28:21;;;;;;;4.82;1.80;;;1.40;99.90;;;;;;5099383;28;20133;-66
2022/12/07 10:30:50;;;;;;;2.17;0.40;;;1.50;99.90;;;;;;5097686;28;20119;-61
2022/12/07 10:33:48;;;;;;;1.60;0.63;;;1.50;99.90;;;;;;5094387;28;20044;-61
2022/12/07 10:36:22;;;;;;;2.20;0.50;;;1.50;99.90;;;;;;5097742;28;20047;-64
2022/12/07 10:38:53;;;;;;;2.05;1.25;;;1.50;99.90;;;;;;5096646;27;20048;-63
2022/12/07 10:41:20;;;;;;;4.28;0.40;;;1.50;99.90;;;;;;5104809;28;20185;-62
2022/12/07 10:43:52;;;;;;;1.00;0.32;;;1.50;99.90;;;;;;5100531;28;20070;-62
2022/12/07 10:46:50;;;;;;;1.58;0.43;;;1.50;99.90;;;;;;5102984;28;20050;-62
2022/12/07 10:49:44;;;;;;;2.15;0.50;;;1.60;99.90;;;;;;5099329;28;20044;-62
2022/12/07 10:52:32;;;;;;;5.90;0.65;;;1.60;99.90;;;;;;5104353;28;20552;-61
2022/12/07 10:55:05;;;;;;;0.70;0.38;;;1.60;99.90;;;;;;5097306;28;20051;-61
2022/12/07 10:57:35;;;;;;;1.80;0.60;;;1.60;99.90;;;;;;5103936;28;20510;-61
2022/12/07 11:00:16;;;;;;;3.53;1.48;;;1.60;99.90;;;;;;5096127;28;20040;-64
2022/12/07 11:03:05;;;;;;;1.67;0.30;;;1.50;99.90;;;;;;5100280;28;20039;-63
2022/12/07 11:05:40;;;;;;;3.20;0.85;;;1.50;99.90;;;;;;5099358;27;20049;-62
2022/12/07 11:08:38;;;;;;;6.10;0.65;;;1.40;99.90;;;;;;5091320;28;20496;-63
2022/12/07 11:11:33;;;;;;;1.10;0.50;;;1.30;99.90;;;;;;5098343;27;20054;-66
2022/12/07 11:14:18;;;;;;;3.20;1.70;;;1.30;99.90;;;;;;5094540;28;20063;-64
2022/12/07 11:17:09;;;;;;;2.55;0.65;;;1.20;99.90;;;;;;5101552;28;20158;-65
2022/12/07 11:20:04;;;;;;;5.43;1.42;;;1.20;99.90;;;;;;5097401;28;20043;-67
2022/12/07 11:22:50;;;;;;;3.00;0.60;;;1.10;99.90;;;;;;5101473;28;20058;-62
2022/12/07 11:25:34;;;;;;;2.65;0.93;;;1.20;99.90;;;;;;5100944;28;20071;-63
2022/12/07 11:28:06;;;;;;;1.63;0.32;;;1.20;99.90;;;;;;5098799;27;20162;-65
2022/12/07 11:30:46;;;;;;;4.95;0.80;;;1.20;99.90;;;;;;5103227;28;20389;-65
2022/12/07 11:33:19;;;;;;;0.55;0.20;;;1.20;99.90;;;;;;5094834;28;20353;-62
2022/12/07 11:36:09;;;;;;;2.47;0.45;;;1.20;99.90;;;;;;5100449;28;20036;-64
2022/12/07 11:39:17;;;;;;;3.55;0.50;;;1.20;99.90;;;;;;5084123;28;20204;-63
2022/12/07 11:41:46;;;;;;;3.40;0.47;;;1.20;99.90;;;;;;5085330;28;20127;-62
2022/12/07 11:44:41;;;;;;;2.30;0.50;;;1.20;99.90;;;;;;5102977;28;20056;-62
2022/12/07 11:47:34;;;;;;;6.18;0.70;;;1.20;99.90;;;;;;5098722;27;20051;-63
2022/12/07 11:50:05;;;;;;;4.47;0.75;;;1.20;99.90;;;;;;5100191;28;20450;-62
2022/12/07 11:53:09;;;;;;;0.82;0.30;;;1.20;99.90;;;;;;5103369;28;20077;-62
2022/12/07 11:55:55;;;;;;;1.88;0.50;;;1.20;99.90;;;;;;5103607;27;20130;-61
2022/12/07 11:58:53;;;;;;;0.35;0.20;;;1.20;99.90;;;;;;5099013;28;20094;-65
2022/12/07 12:01:27;;;;;;;2.17;0.63;;;1.20;99.90;;;;;;5094086;28;20071;-62
2022/12/07 12:04:02;;;;;;;2.25;0.38;;;1.20;99.90;;;;;;5100235;28;20062;-60
2022/12/07 12:06:29;;;;;;;0.68;0.22;;;1.30;99.90;;;;;;5096242;28;20047;-61
2022/12/07 12:09:15;;;;;;;2.15;0.40;;;1.30;99.90;;;;;;5099280;28;20047;-60
2022/12/07 12:12:23;;;;;;;2.70;0.60;;;1.30;99.90;;;;;;5091569;28;20055;-63
2022/12/07 12:15:25;;;;;;;0.85;0.50;;;1.40;99.90;;;;;;5092688;28;20052;-67
2022/12/07 12:17:57;;;;;;;1.55;0.40;;;1.40;99.90;;;;;;5097620;28;20052;-62
2022/12/07 12:20:32;;;;;;;0.20;0.20;;;1.40;99.90;;;;;;5099423;28;20043;-62
2022/12/07 12:23:17;;;;;;;3.30;0.55;;;1.50;99.90;;;;;;5098305;28;20054;-66
2022/12/07 12:25:44;;;;;;;2.17;0.50;;;1.50;99.90;;;;;;5098126;28;20074;-65
2022/12/07 12:28:27;;;;;;;2.00;0.35;;;1.50;99.90;;;;;;5099903;28;20040;-62
2022/12/07 12:31:05;;;;;;;4.30;0.75;;;1.40;99.90;;;;;;5100558;28;20086;-65
2022/12/07 12:33:33;;;;;;;1.67;0.55;;;1.50;99.90;;;;;;5100530;28;20139;-62
2022/12/07 12:36:23;;;;;;;3.72;0.50;;;1.50;99.90;;;;;;5098333;27;20044;-62
2022/12/07 12:38:58;;;;;;;2.03;0.30;;;1.40;99.90;;;;;;5090361;28;20344;-63
2022/12/07 12:44:19;;;;;;;1.13;0.30;;;1.40;99.90;;;;;;5096511;28;20056;-61
2022/12/07 12:46:53;;;;;;;1.35;0.30;;;1.40;99.90;;;;;;5097887;28;20070;-63
2022/12/07 12:49:20;;;;;;;3.17;0.50;;;1.40;99.90;;;;;;5102218;28;20130;-63
2022/12/07 12:51:51;;;;;;;2.35;0.50;;;1.50;99.90;;;;;;5102668;28;20051;-65
2022/12/07 12:54:18;;;;;;;0.98;0.40;;;1.50;99.90;;;;;;5102750;28;20044;-65
2022/12/07 12:57:13;;;;;;;2.30;0.25;;;1.50;99.90;;;;;;5097390;28;20109;-61
2022/12/07 13:00:00;;;;;;;0.73;0.28;;;1.50;99.90;;;;;;5093654;28;20613;-64
2022/12/07 13:02:34;;;;;;;2.15;0.40;;;1.40;99.90;;;;;;5101051;28;20124;-65
2022/12/07 13:05:23;;;;;;;3.00;0.60;;;1.40;99.90;;;;;;5097978;28;20043;-65
2022/12/07 13:07:52;;;;;;;3.55;0.50;;;1.40;99.90;;;;;;5096981;28;20469;-65
2022/12/07 13:10:34;;;;;;;3.42;0.20;;;1.40;99.90;;;;;;5101660;28;20285;-62
2022/12/07 13:13:10;;;;;;;0.57;0.35;;;1.50;99.90;;;;;;5095427;28;20473;-66
2022/12/07 13:15:38;;;;;;;4.78;1.92;;;1.50;99.90;;;;;;5100873;28;20051;-64
2022/12/07 13:18:26;;;;;;;6.40;1.00;;;1.40;99.90;;;;;;5102150;28;20057;-63
2022/12/07 13:20:59;;;;;;;1.25;0.32;;;1.30;99.90;;;;;;5104103;28;21862;-63
2022/12/07 13:23:46;;;;;;;7.38;1.13;;;1.30;99.90;;;;;;5100635;28;20051;-63
2022/12/07 13:26:33;;;;;;;1.33;0.47;;;1.30;99.90;;;;;;5098653;28;20412;-64
2022/12/07 13:29:09;;;;;;;1.38;0.40;;;1.20;99.90;;;;;;5102585;28;20366;-67
2022/12/07 13:31:40;;;;;;;4.25;0.40;;;1.20;99.90;;;;;;5103324;28;20046;-63
2022/12/07 13:34:40;;;;;;;3.55;0.73;;;1.20;99.90;;;;;;5101507;28;20054;-63
2022/12/07 13:37:32;;;;;;;3.50;0.40;;;1.20;99.90;;;;;;5098541;28;20050;-65